Rhonda Lamulle — WDC8441 — position and weather

sailwx.info

Track history (hours):
 
Tides and Currents Weather Stations Pressure Air Temp Water Temp Dewpoint Dewpoint Depression Visibility Wind Speed Wind Dir Waves Ship Positions

Rhonda Lamulle

Owner: Florida Marine, LLC, Mandeville, LA. More information available from US FCC via Universal Licensing System and Coast Guard Vessel Documentation Center.

Last reported at 2018-Feb-06 23:47 UTC. Time now 2018-Feb-23 03:17 UTC.
Position N 30°24' W 086°53'.
Warning: this ship's position is 16 days out of date.

Length 13 m; draft 3 m.

Type: Towing. MMSI: 367087104.

Date/timePositionNaut miles runAvg speedWind from/ knotsBaromVisibWave heightAir tempDewpointWater temp
2018-Feb-06 23:47N 30°24' W 086°53'2 5.6
2018-Feb-06 23:30N 30°24' W 086°51'3 6.1
2018-Feb-06 23:00N 30°24' W 086°48'14 0.6
2018-Feb-05 23:39N 30°25' W 086°31'1 6.5
2018-Feb-05 23:30N 30°26' W 086°30'3 6.0
2018-Feb-05 23:00N 30°28' W 086°28'1 2.4
2018-Feb-05 22:30N 30°29' W 086°29'0 0.3
2018-Feb-05 22:00N 30°29' W 086°29'0 0.0
2018-Feb-05 21:30N 30°29' W 086°29'0 0.0
2018-Feb-05 21:00N 30°29' W 086°29'0 0.0
2018-Feb-05 20:27N 30°29' W 086°29'0 0.0
2018-Feb-05 20:00N 30°29' W 086°29'0 0.0
2018-Feb-05 19:30N 30°29' W 086°29'0 0.0
2018-Feb-05 19:00N 30°29' W 086°29'0 0.0
2018-Feb-05 18:30N 30°29' W 086°29'0 0.0
2018-Feb-05 17:58N 30°29' W 086°29'0 0.0
2018-Feb-05 17:28N 30°29' W 086°29'0 0.0
2018-Feb-05 17:00N 30°29' W 086°29'0 0.0
2018-Feb-05 16:30N 30°29' W 086°29'0 0.0
2018-Feb-05 16:00N 30°29' W 086°29'0 0.0
2018-Feb-05 15:30N 30°29' W 086°29'0 0.0
2018-Feb-05 15:00N 30°29' W 086°29'0 0.0
2018-Feb-05 14:30N 30°29' W 086°29'0 0.0
2018-Feb-05 13:55N 30°29' W 086°29'0 0.0
2018-Feb-05 13:30N 30°29' W 086°29'0 0.0
2018-Feb-05 12:58N 30°29' W 086°29'0 0.0
2018-Feb-05 12:30N 30°29' W 086°29'0 0.0
2018-Feb-05 12:00N 30°29' W 086°29'0 0.0
2018-Feb-05 11:30N 30°29' W 086°29'0 0.0
2018-Feb-05 11:00N 30°29' W 086°29'0 0.0
2018-Feb-05 10:30N 30°29' W 086°29'0 0.0
2018-Feb-05 10:00N 30°29' W 086°29'0 0.0
2018-Feb-05 09:30N 30°29' W 086°29'0 0.0
2018-Feb-05 09:00N 30°29' W 086°29'0 0.0
2018-Feb-05 08:30N 30°29' W 086°29'0 0.0
2018-Feb-05 08:00N 30°29' W 086°29'0 0.0
2018-Feb-05 07:30N 30°29' W 086°29'0 0.0
2018-Feb-05 07:00N 30°29' W 086°29'0 0.0
2018-Feb-05 06:30N 30°29' W 086°29'0 0.0
2018-Feb-05 05:30N 30°29' W 086°29'0 0.0
2018-Feb-05 05:00N 30°29' W 086°29'0 0.0
2018-Feb-05 04:30N 30°29' W 086°29'0 0.0
2018-Feb-05 04:00N 30°29' W 086°29'0 0.0
2018-Feb-05 03:30N 30°29' W 086°29'0 0.0
2018-Feb-05 03:00N 30°29' W 086°29'0 0.0
2018-Feb-05 02:30N 30°29' W 086°29'0 0.0
2018-Feb-05 02:00N 30°29' W 086°29'0 0.0
2018-Feb-05 01:30N 30°29' W 086°29'0 0.0
2018-Feb-05 01:00N 30°29' W 086°29'0 0.0
2018-Feb-05 00:30N 30°29' W 086°29'0 0.0
2018-Feb-05 00:00N 30°29' W 086°29'0 0.0
2018-Feb-04 23:30N 30°29' W 086°29'0 0.0
2018-Feb-04 23:00N 30°29' W 086°29'0 0.0
2018-Feb-04 22:30N 30°29' W 086°29'0 0.0
2018-Feb-04 22:00N 30°29' W 086°29'0 0.0
2018-Feb-04 21:30N 30°29' W 086°29'0 0.0
2018-Feb-04 21:00N 30°29' W 086°29'0 0.0
2018-Feb-04 20:00N 30°29' W 086°29'0 0.0
2018-Feb-04 19:30N 30°29' W 086°29'0 0.0
2018-Feb-04 19:00N 30°29' W 086°29'0 0.0
2018-Feb-04 18:30N 30°29' W 086°29'0 0.0
2018-Feb-04 18:00N 30°29' W 086°29'0 0.0
2018-Feb-04 17:30N 30°29' W 086°29'0 0.0
2018-Feb-04 15:30N 30°29' W 086°29'0 0.0
2018-Feb-04 15:00N 30°29' W 086°29'0 0.0
2018-Feb-04 14:30N 30°29' W 086°29'0 0.0
2018-Feb-04 14:00N 30°29' W 086°29'0 0.0
2018-Feb-04 13:30N 30°29' W 086°29'0 0.0
2018-Feb-04 13:00N 30°29' W 086°29'0 0.0
2018-Feb-04 12:30N 30°29' W 086°29'0 0.0
2018-Feb-04 12:00N 30°29' W 086°29'0 0.0
2018-Feb-04 11:30N 30°29' W 086°29'0 0.0
2018-Feb-04 09:58N 30°29' W 086°29'0 0.0
2018-Feb-04 09:00N 30°29' W 086°29'0 0.0
2018-Feb-04 08:30N 30°29' W 086°29'0 0.0
2018-Feb-04 08:00N 30°29' W 086°29'0 0.0
2018-Feb-04 07:30N 30°29' W 086°29'0 0.0
2018-Feb-04 07:00N 30°29' W 086°29'0 0.0
2018-Feb-04 06:30N 30°29' W 086°29'0 0.0
2018-Feb-04 06:01N 30°29' W 086°29'0 0.0
2018-Feb-04 05:30N 30°29' W 086°29'0 0.0
2018-Feb-04 05:00N 30°29' W 086°29'0 0.0
2018-Feb-04 04:30N 30°29' W 086°29'0 0.0
2018-Feb-04 04:00N 30°29' W 086°29'0 0.0
2018-Feb-04 03:30N 30°29' W 086°29'0 0.0
2018-Feb-04 03:00N 30°29' W 086°29'0 0.0
2018-Feb-04 02:30N 30°29' W 086°29'0 0.0
2018-Feb-04 02:00N 30°29' W 086°29'0 0.0
2018-Feb-04 01:30N 30°29' W 086°29'0 0.0
2018-Feb-04 01:00N 30°29' W 086°29'0 0.0
2018-Feb-04 00:30N 30°29' W 086°29'0 0.0
2018-Feb-04 00:00N 30°29' W 086°29'0 0.0
2018-Feb-03 23:30N 30°29' W 086°29'0 0.0
2018-Feb-03 23:00N 30°29' W 086°29'0 0.0
2018-Feb-03 22:30N 30°29' W 086°29'0 0.0
2018-Feb-03 22:00N 30°29' W 086°29'0 0.0
2018-Feb-03 21:30N 30°29' W 086°29'0 0.0
2018-Feb-03 21:00N 30°29' W 086°29'0 0.0
2018-Feb-03 20:30N 30°29' W 086°29'0 0.0
2018-Feb-03 20:00N 30°29' W 086°29'0 0.0
2018-Feb-03 18:30N 30°29' W 086°29'1 2.5
2018-Feb-03 18:01N 30°30' W 086°29'1 1.2
2018-Feb-03 17:30N 30°31' W 086°29'0 0.0
2018-Feb-03 17:00N 30°31' W 086°29'0 0.0
2018-Feb-03 16:00N 30°31' W 086°29'0 0.0
2018-Feb-03 15:30N 30°31' W 086°29'0 0.0
2018-Feb-03 15:00N 30°31' W 086°29'0 0.3
2018-Feb-03 14:30N 30°31' W 086°29'2 3.2
2018-Feb-03 13:59N 30°29' W 086°29'0 0.0
2018-Feb-03 13:30N 30°29' W 086°29'0 0.0
2018-Feb-03 13:00N 30°29' W 086°29'0 0.0
2018-Feb-03 12:30N 30°29' W 086°29'0 0.0
2018-Feb-03 12:00N 30°29' W 086°29'0 0.0
2018-Feb-03 11:30N 30°29' W 086°29'0 0.0
2018-Feb-03 11:00N 30°29' W 086°29'0 0.0
2018-Feb-03 10:30N 30°29' W 086°29'0 0.1
2018-Feb-03 10:00N 30°29' W 086°29'0 0.4
2018-Feb-03 09:30N 30°29' W 086°29'1 1.0
2018-Feb-03 09:00N 30°29' W 086°29'3 5.6
2018-Feb-03 08:30N 30°27' W 086°27'3 5.9
2018-Feb-03 08:00N 30°26' W 086°24'  
2018-Jan-31 03:12N 30°26' W 086°18'1 5.4
2018-Jan-31 02:56N 30°26' W 086°20'2 5.6
2018-Jan-31 02:30N 30°26' W 086°23'3 5.6
2018-Jan-31 02:00N 30°26' W 086°26'4 7.4
2018-Jan-31 01:30N 30°26' W 086°30'12 4.7
2018-Jan-30 22:54N 30°24' W 086°44'2 4.9
2018-Jan-30 22:30N 30°24' W 086°47'  
Track history (hours):
 
Tides and Currents Weather Stations Pressure Air Temp Water Temp Dewpoint Dewpoint Depression Visibility Wind Speed Wind Dir Waves Ship Positions

Rhonda Lamulle

Owner: Florida Marine, LLC, Mandeville, LA. More information available from US FCC via Universal Licensing System and Coast Guard Vessel Documentation Center.

Last reported at 2018-Feb-06 23:47 UTC. Time now 2018-Feb-23 03:17 UTC.
Position N 30°24' W 086°53'.
Warning: this ship's position is 16 days out of date.

Length 13 m; draft 3 m.

Type: Towing. MMSI: 367087104.

Date/timePositionNaut miles runAvg speedWind from/ knotsBaromVisibWave heightAir tempDewpointWater temp
2018-Feb-06 23:47N 30°24' W 086°53'2 5.6
2018-Feb-06 23:30N 30°24' W 086°51'3 6.1
2018-Feb-06 23:00N 30°24' W 086°48'14 0.6
2018-Feb-05 23:39N 30°25' W 086°31'1 6.5
2018-Feb-05 23:30N 30°26' W 086°30'3 6.0
2018-Feb-05 23:00N 30°28' W 086°28'1 2.4
2018-Feb-05 22:30N 30°29' W 086°29'0 0.3
2018-Feb-05 22:00N 30°29' W 086°29'0 0.0
2018-Feb-05 21:30N 30°29' W 086°29'0 0.0
2018-Feb-05 21:00N 30°29' W 086°29'0 0.0
2018-Feb-05 20:27N 30°29' W 086°29'0 0.0
2018-Feb-05 20:00N 30°29' W 086°29'0 0.0
2018-Feb-05 19:30N 30°29' W 086°29'0 0.0
2018-Feb-05 19:00N 30°29' W 086°29'0 0.0
2018-Feb-05 18:30N 30°29' W 086°29'0 0.0
2018-Feb-05 17:58N 30°29' W 086°29'0 0.0
2018-Feb-05 17:28N 30°29' W 086°29'0 0.0
2018-Feb-05 17:00N 30°29' W 086°29'0 0.0
2018-Feb-05 16:30N 30°29' W 086°29'0 0.0
2018-Feb-05 16:00N 30°29' W 086°29'0 0.0
2018-Feb-05 15:30N 30°29' W 086°29'0 0.0
2018-Feb-05 15:00N 30°29' W 086°29'0 0.0
2018-Feb-05 14:30N 30°29' W 086°29'0 0.0
2018-Feb-05 13:55N 30°29' W 086°29'0 0.0
2018-Feb-05 13:30N 30°29' W 086°29'0 0.0
2018-Feb-05 12:58N 30°29' W 086°29'0 0.0
2018-Feb-05 12:30N 30°29' W 086°29'0 0.0
2018-Feb-05 12:00N 30°29' W 086°29'0 0.0
2018-Feb-05 11:30N 30°29' W 086°29'0 0.0
2018-Feb-05 11:00N 30°29' W 086°29'0 0.0
2018-Feb-05 10:30N 30°29' W 086°29'0 0.0
2018-Feb-05 10:00N 30°29' W 086°29'0 0.0
2018-Feb-05 09:30N 30°29' W 086°29'0 0.0
2018-Feb-05 09:00N 30°29' W 086°29'0 0.0
2018-Feb-05 08:30N 30°29' W 086°29'0 0.0
2018-Feb-05 08:00N 30°29' W 086°29'0 0.0
2018-Feb-05 07:30N 30°29' W 086°29'0 0.0
2018-Feb-05 07:00N 30°29' W 086°29'0 0.0
2018-Feb-05 06:30N 30°29' W 086°29'0 0.0
2018-Feb-05 05:30N 30°29' W 086°29'0 0.0
2018-Feb-05 05:00N 30°29' W 086°29'0 0.0
2018-Feb-05 04:30N 30°29' W 086°29'0 0.0
2018-Feb-05 04:00N 30°29' W 086°29'0 0.0
2018-Feb-05 03:30N 30°29' W 086°29'0 0.0
2018-Feb-05 03:00N 30°29' W 086°29'0 0.0
2018-Feb-05 02:30N 30°29' W 086°29'0 0.0
2018-Feb-05 02:00N 30°29' W 086°29'0 0.0
2018-Feb-05 01:30N 30°29' W 086°29'0 0.0
2018-Feb-05 01:00N 30°29' W 086°29'0 0.0
2018-Feb-05 00:30N 30°29' W 086°29'0 0.0
2018-Feb-05 00:00N 30°29' W 086°29'0 0.0
2018-Feb-04 23:30N 30°29' W 086°29'0 0.0
2018-Feb-04 23:00N 30°29' W 086°29'0 0.0
2018-Feb-04 22:30N 30°29' W 086°29'0 0.0
2018-Feb-04 22:00N 30°29' W 086°29'0 0.0
2018-Feb-04 21:30N 30°29' W 086°29'0 0.0
2018-Feb-04 21:00N 30°29' W 086°29'0 0.0
2018-Feb-04 20:00N 30°29' W 086°29'0 0.0
2018-Feb-04 19:30N 30°29' W 086°29'0 0.0
2018-Feb-04 19:00N 30°29' W 086°29'0 0.0
2018-Feb-04 18:30N 30°29' W 086°29'0 0.0
2018-Feb-04 18:00N 30°29' W 086°29'0 0.0
2018-Feb-04 17:30N 30°29' W 086°29'0 0.0
2018-Feb-04 15:30N 30°29' W 086°29'0 0.0
2018-Feb-04 15:00N 30°29' W 086°29'0 0.0
2018-Feb-04 14:30N 30°29' W 086°29'0 0.0
2018-Feb-04 14:00N 30°29' W 086°29'0 0.0
2018-Feb-04 13:30N 30°29' W 086°29'0 0.0
2018-Feb-04 13:00N 30°29' W 086°29'0 0.0
2018-Feb-04 12:30N 30°29' W 086°29'0 0.0
2018-Feb-04 12:00N 30°29' W 086°29'0 0.0
2018-Feb-04 11:30N 30°29' W 086°29'0 0.0
2018-Feb-04 09:58N 30°29' W 086°29'0 0.0
2018-Feb-04 09:00N 30°29' W 086°29'0 0.0
2018-Feb-04 08:30N 30°29' W 086°29'0 0.0
2018-Feb-04 08:00N 30°29' W 086°29'0 0.0
2018-Feb-04 07:30N 30°29' W 086°29'0 0.0
2018-Feb-04 07:00N 30°29' W 086°29'0 0.0
2018-Feb-04 06:30N 30°29' W 086°29'0 0.0
2018-Feb-04 06:01N 30°29' W 086°29'0 0.0
2018-Feb-04 05:30N 30°29' W 086°29'0 0.0
2018-Feb-04 05:00N 30°29' W 086°29'0 0.0
2018-Feb-04 04:30N 30°29' W 086°29'0 0.0
2018-Feb-04 04:00N 30°29' W 086°29'0 0.0
2018-Feb-04 03:30N 30°29' W 086°29'0 0.0
2018-Feb-04 03:00N 30°29' W 086°29'0 0.0
2018-Feb-04 02:30N 30°29' W 086°29'0 0.0
2018-Feb-04 02:00N 30°29' W 086°29'0 0.0
2018-Feb-04 01:30N 30°29' W 086°29'0 0.0
2018-Feb-04 01:00N 30°29' W 086°29'0 0.0
2018-Feb-04 00:30N 30°29' W 086°29'0 0.0
2018-Feb-04 00:00N 30°29' W 086°29'0 0.0
2018-Feb-03 23:30N 30°29' W 086°29'0 0.0
2018-Feb-03 23:00N 30°29' W 086°29'0 0.0
2018-Feb-03 22:30N 30°29' W 086°29'0 0.0
2018-Feb-03 22:00N 30°29' W 086°29'0 0.0
2018-Feb-03 21:30N 30°29' W 086°29'0 0.0
2018-Feb-03 21:00N 30°29' W 086°29'0 0.0
2018-Feb-03 20:30N 30°29' W 086°29'0 0.0
2018-Feb-03 20:00N 30°29' W 086°29'0 0.0
2018-Feb-03 18:30N 30°29' W 086°29'1 2.5
2018-Feb-03 18:01N 30°30' W 086°29'1 1.2
2018-Feb-03 17:30N 30°31' W 086°29'0 0.0
2018-Feb-03 17:00N 30°31' W 086°29'0 0.0
2018-Feb-03 16:00N 30°31' W 086°29'0 0.0
2018-Feb-03 15:30N 30°31' W 086°29'0 0.0
2018-Feb-03 15:00N 30°31' W 086°29'0 0.3
2018-Feb-03 14:30N 30°31' W 086°29'2 3.2
2018-Feb-03 13:59N 30°29' W 086°29'0 0.0
2018-Feb-03 13:30N 30°29' W 086°29'0 0.0
2018-Feb-03 13:00N 30°29' W 086°29'0 0.0
2018-Feb-03 12:30N 30°29' W 086°29'0 0.0
2018-Feb-03 12:00N 30°29' W 086°29'0 0.0
2018-Feb-03 11:30N 30°29' W 086°29'0 0.0
2018-Feb-03 11:00N 30°29' W 086°29'0 0.0
2018-Feb-03 10:30N 30°29' W 086°29'0 0.1
2018-Feb-03 10:00N 30°29' W 086°29'0 0.4
2018-Feb-03 09:30N 30°29' W 086°29'1 1.0
2018-Feb-03 09:00N 30°29' W 086°29'3 5.6
2018-Feb-03 08:30N 30°27' W 086°27'3 5.9
2018-Feb-03 08:00N 30°26' W 086°24'  
2018-Jan-31 03:12N 30°26' W 086°18'1 5.4
2018-Jan-31 02:56N 30°26' W 086°20'2 5.6
2018-Jan-31 02:30N 30°26' W 086°23'3 5.6
2018-Jan-31 02:00N 30°26' W 086°26'4 7.4
2018-Jan-31 01:30N 30°26' W 086°30'12 4.7
2018-Jan-30 22:54N 30°24' W 086°44'2 4.9
2018-Jan-30 22:30N 30°24' W 086°47'  

Dump ship's entire track history